sensor_id;sensor_type;location;lat;lon;timestamp;temperature;humidity
14031;DHT22;7090;49.436;8.490;2023-10-09T00:00:32;14.20;99.90
14031;DHT22;7090;49.436;8.490;2023-10-09T00:02:58;14.20;99.90
14031;DHT22;7090;49.436;8.490;2023-10-09T00:05:27;14.30;99.90
14031;DHT22;7090;49.436;8.490;2023-10-09T00:08:05;14.30;99.90
14031;DHT22;7090;49.436;8.490;2023-10-09T00:10:30;14.30;99.90
14031;DHT22;7090;49.436;8.490;2023-10-09T00:13:13;14.40;99.90
14031;DHT22;7090;49.436;8.490;2023-10-09T00:15:39;14.40;99.90
14031;DHT22;7090;49.436;8.490;2023-10-09T00:18:06;14.40;99.90
14031;DHT22;7090;49.436;8.490;2023-10-09T00:20:40;14.40;99.90
14031;DHT22;7090;49.436;8.490;2023-10-09T00:23:09;14.50;99.90
14031;DHT22;7090;49.436;8.490;2023-10-09T00:25:48;14.30;99.90
14031;DHT22;7090;49.436;8.490;2023-10-09T00:28:30;14.50;99.90
14031;DHT22;7090;49.436;8.490;2023-10-09T00:30:56;14.50;99.90
14031;DHT22;7090;49.436;8.490;2023-10-09T00:33:21;14.50;99.90
14031;DHT22;7090;49.436;8.490;2023-10-09T00:35:48;14.50;99.90
14031;DHT22;7090;49.436;8.490;2023-10-09T00:38:20;14.40;99.90
14031;DHT22;7090;49.436;8.490;2023-10-09T00:40:46;14.40;99.90
14031;DHT22;7090;49.436;8.490;2023-10-09T00:43:16;14.40;99.90
14031;DHT22;7090;49.436;8.490;2023-10-09T00:45:46;14.50;99.90
14031;DHT22;7090;49.436;8.490;2023-10-09T00:48:13;14.60;99.90
14031;DHT22;7090;49.436;8.490;2023-10-09T00:50:48;14.50;99.90
14031;DHT22;7090;49.436;8.490;2023-10-09T00:53:19;14.50;99.90
14031;DHT22;7090;49.436;8.490;2023-10-09T00:55:57;14.50;99.90
14031;DHT22;7090;49.436;8.490;2023-10-09T00:58:23;14.50;99.90
14031;DHT22;7090;49.436;8.490;2023-10-09T01:00:56;14.40;99.90
14031;DHT22;7090;49.436;8.490;2023-10-09T01:03:24;14.40;99.90
14031;DHT22;7090;49.436;8.490;2023-10-09T01:05:58;14.50;99.90
14031;DHT22;7090;49.436;8.490;2023-10-09T01:08:39;14.50;99.90
14031;DHT22;7090;49.436;8.490;2023-10-09T01:11:05;14.50;99.90
14031;DHT22;7090;49.436;8.490;2023-10-09T01:13:39;14.50;99.90
14031;DHT22;7090;49.436;8.490;2023-10-09T01:16:07;14.50;99.90
14031;DHT22;7090;49.436;8.490;2023-10-09T01:18:40;14.50;99.90
14031;DHT22;7090;49.436;8.490;2023-10-09T01:21:09;14.40;99.90
14031;DHT22;7090;49.436;8.490;2023-10-09T01:23:43;14.40;99.90
14031;DHT22;7090;49.436;8.490;2023-10-09T01:26:31;14.50;99.90
14031;DHT22;7090;49.436;8.490;2023-10-09T01:29:00;14.40;99.90
14031;DHT22;7090;49.436;8.490;2023-10-09T01:31:27;14.40;99.90
14031;DHT22;7090;49.436;8.490;2023-10-09T01:34:02;14.40;99.90
14031;DHT22;7090;49.436;8.490;2023-10-09T01:36:37;14.40;99.90
14031;DHT22;7090;49.436;8.490;2023-10-09T01:39:05;14.40;99.90
14031;DHT22;7090;49.436;8.490;2023-10-09T01:41:52;14.50;99.90
14031;DHT22;7090;49.436;8.490;2023-10-09T01:44:27;14.40;99.90
14031;DHT22;7090;49.436;8.490;2023-10-09T01:46:55;14.40;99.90
14031;DHT22;7090;49.436;8.490;2023-10-09T01:49:24;14.40;99.90
14031;DHT22;7090;49.436;8.490;2023-10-09T01:51:57;14.40;99.90
14031;DHT22;7090;49.436;8.490;2023-10-09T01:54:28;14.40;99.90
14031;DHT22;7090;49.436;8.490;2023-10-09T01:57:03;14.50;99.90
14031;DHT22;7090;49.436;8.490;2023-10-09T01:59:36;14.40;99.90
14031;DHT22;7090;49.436;8.490;2023-10-09T02:02:11;14.40;99.90
14031;DHT22;7090;49.436;8.490;2023-10-09T02:05:03;14.40;99.90
14031;DHT22;7090;49.436;8.490;2023-10-09T02:07:35;14.40;99.90
14031;DHT22;7090;49.436;8.490;2023-10-09T02:10:11;14.40;99.90
14031;DHT22;7090;49.436;8.490;2023-10-09T02:13:12;14.40;99.90
14031;DHT22;7090;49.436;8.490;2023-10-09T02:15:43;14.50;99.90
14031;DHT22;7090;49.436;8.490;2023-10-09T02:18:16;14.40;99.90
14031;DHT22;7090;49.436;8.490;2023-10-09T02:23:25;14.40;99.90
14031;DHT22;7090;49.436;8.490;2023-10-09T02:25:57;14.30;99.90
14031;DHT22;7090;49.436;8.490;2023-10-09T02:28:23;14.30;99.90
14031;DHT22;7090;49.436;8.490;2023-10-09T02:30:48;14.30;99.90
14031;DHT22;7090;49.436;8.490;2023-10-09T02:33:15;14.20;99.90
14031;DHT22;7090;49.436;8.490;2023-10-09T02:35:46;14.10;99.90
14031;DHT22;7090;49.436;8.490;2023-10-09T02:38:16;14.20;99.90
14031;DHT22;7090;49.436;8.490;2023-10-09T02:40:43;14.20;99.90
14031;DHT22;7090;49.436;8.490;2023-10-09T02:43:34;14.20;99.90
14031;DHT22;7090;49.436;8.490;2023-10-09T02:46:19;14.20;99.90
14031;DHT22;7090;49.436;8.490;2023-10-09T02:48:48;14.20;99.90
14031;DHT22;7090;49.436;8.490;2023-10-09T02:51:18;14.30;99.90
14031;DHT22;7090;49.436;8.490;2023-10-09T02:54:00;14.30;99.90
14031;DHT22;7090;49.436;8.490;2023-10-09T02:56:36;14.20;99.90
14031;DHT22;7090;49.436;8.490;2023-10-09T02:59:04;14.20;99.90
14031;DHT22;7090;49.436;8.490;2023-10-09T03:01:38;14.10;99.90
14031;DHT22;7090;49.436;8.490;2023-10-09T03:04:04;14.10;99.90
14031;DHT22;7090;49.436;8.490;2023-10-09T03:06:32;14.10;99.90
14031;DHT22;7090;49.436;8.490;2023-10-09T03:08:59;14.00;99.90
14031;DHT22;7090;49.436;8.490;2023-10-09T03:11:25;13.90;99.90
14031;DHT22;7090;49.436;8.490;2023-10-09T03:13:57;13.90;99.90
14031;DHT22;7090;49.436;8.490;2023-10-09T03:16:23;13.90;99.90
14031;DHT22;7090;49.436;8.490;2023-10-09T03:18:51;13.90;99.90
14031;DHT22;7090;49.436;8.490;2023-10-09T03:21:16;13.90;99.90
14031;DHT22;7090;49.436;8.490;2023-10-09T03:23:45;13.90;99.90
14031;DHT22;7090;49.436;8.490;2023-10-09T03:26:18;13.80;99.90
14031;DHT22;7090;49.436;8.490;2023-10-09T03:28:46;13.80;99.90
14031;DHT22;7090;49.436;8.490;2023-10-09T03:31:12;13.70;99.90
14031;DHT22;7090;49.436;8.490;2023-10-09T03:33:38;13.70;99.90
14031;DHT22;7090;49.436;8.490;2023-10-09T03:36:04;13.90;99.90
14031;DHT22;7090;49.436;8.490;2023-10-09T03:38:38;13.70;99.90
14031;DHT22;7090;49.436;8.490;2023-10-09T03:41:07;13.80;99.90
14031;DHT22;7090;49.436;8.490;2023-10-09T03:43:36;13.90;99.90
14031;DHT22;7090;49.436;8.490;2023-10-09T03:46:09;13.90;99.90
14031;DHT22;7090;49.436;8.490;2023-10-09T03:48:51;13.80;99.90
14031;DHT22;7090;49.436;8.490;2023-10-09T03:51:18;13.70;99.90
14031;DHT22;7090;49.436;8.490;2023-10-09T03:53:51;13.70;99.90
14031;DHT22;7090;49.436;8.490;2023-10-09T03:56:20;13.70;99.90
14031;DHT22;7090;49.436;8.490;2023-10-09T03:58:48;13.70;99.90
14031;DHT22;7090;49.436;8.490;2023-10-09T04:01:19;13.70;99.90
14031;DHT22;7090;49.436;8.490;2023-10-09T04:03:59;13.70;99.90
14031;DHT22;7090;49.436;8.490;2023-10-09T04:06:30;13.80;99.90
14031;DHT22;7090;49.436;8.490;2023-10-09T04:11:49;13.90;99.90
14031;DHT22;7090;49.436;8.490;2023-10-09T04:14:23;13.90;99.90
14031;DHT22;7090;49.436;8.490;2023-10-09T04:16:58;13.80;99.90
14031;DHT22;7090;49.436;8.490;2023-10-09T04:19:43;13.90;99.90
14031;DHT22;7090;49.436;8.490;2023-10-09T04:22:35;13.80;99.90
14031;DHT22;7090;49.436;8.490;2023-10-09T04:25:05;13.80;99.90
14031;DHT22;7090;49.436;8.490;2023-10-09T04:27:40;13.70;99.90
14031;DHT22;7090;49.436;8.490;2023-10-09T04:30:07;13.80;99.90
14031;DHT22;7090;49.436;8.490;2023-10-09T04:32:33;13.80;99.90
14031;DHT22;7090;49.436;8.490;2023-10-09T04:35:00;13.90;99.90
14031;DHT22;7090;49.436;8.490;2023-10-09T04:37:44;13.90;99.90
14031;DHT22;7090;49.436;8.490;2023-10-09T04:40:18;13.90;99.90
14031;DHT22;7090;49.436;8.490;2023-10-09T04:43:02;13.90;99.90
14031;DHT22;7090;49.436;8.490;2023-10-09T04:45:38;13.80;99.90
14031;DHT22;7090;49.436;8.490;2023-10-09T04:48:22;13.70;99.90
14031;DHT22;7090;49.436;8.490;2023-10-09T04:51:05;13.70;99.90
14031;DHT22;7090;49.436;8.490;2023-10-09T04:53:56;13.70;99.90
14031;DHT22;7090;49.436;8.490;2023-10-09T04:56:40;13.60;99.90
14031;DHT22;7090;49.436;8.490;2023-10-09T04:59:19;13.60;99.90
14031;DHT22;7090;49.436;8.490;2023-10-09T05:01:45;13.60;99.90
14031;DHT22;7090;49.436;8.490;2023-10-09T05:04:23;13.60;99.90
14031;DHT22;7090;49.436;8.490;2023-10-09T05:07:04;13.60;99.90
14031;DHT22;7090;49.436;8.490;2023-10-09T05:09:49;13.60;99.90
14031;DHT22;7090;49.436;8.490;2023-10-09T05:12:40;13.60;99.90
14031;DHT22;7090;49.436;8.490;2023-10-09T05:15:13;13.70;99.90
14031;DHT22;7090;49.436;8.490;2023-10-09T05:17:39;13.60;99.90
14031;DHT22;7090;49.436;8.490;2023-10-09T05:20:08;13.60;99.90
14031;DHT22;7090;49.436;8.490;2023-10-09T05:22:51;13.60;99.90
14031;DHT22;7090;49.436;8.490;2023-10-09T05:25:25;13.50;99.90
14031;DHT22;7090;49.436;8.490;2023-10-09T05:28:11;13.60;99.90
14031;DHT22;7090;49.436;8.490;2023-10-09T05:30:57;13.50;99.90
14031;DHT22;7090;49.436;8.490;2023-10-09T05:33:35;13.50;99.90
14031;DHT22;7090;49.436;8.490;2023-10-09T05:36:06;13.50;99.90
14031;DHT22;7090;49.436;8.490;2023-10-09T05:39:01;13.60;99.90
14031;DHT22;7090;49.436;8.490;2023-10-09T05:41:46;13.60;99.90
14031;DHT22;7090;49.436;8.490;2023-10-09T05:44:13;13.60;99.90
14031;DHT22;7090;49.436;8.490;2023-10-09T05:46:58;13.70;99.90
14031;DHT22;7090;49.436;8.490;2023-10-09T05:49:42;13.70;99.90
14031;DHT22;7090;49.436;8.490;2023-10-09T05:52:23;13.80;99.90
14031;DHT22;7090;49.436;8.490;2023-10-09T05:55:05;13.90;99.90
14031;DHT22;7090;49.436;8.490;2023-10-09T05:57:55;14.00;99.90
14031;DHT22;7090;49.436;8.490;2023-10-09T06:00:40;14.00;99.90
14031;DHT22;7090;49.436;8.490;2023-10-09T06:03:24;14.00;99.90
14031;DHT22;7090;49.436;8.490;2023-10-09T06:05:54;14.00;99.90
14031;DHT22;7090;49.436;8.490;2023-10-09T06:08:24;14.10;99.90
14031;DHT22;7090;49.436;8.490;2023-10-09T06:11:03;14.20;99.90
14031;DHT22;7090;49.436;8.490;2023-10-09T06:13:52;14.20;99.90
14031;DHT22;7090;49.436;8.490;2023-10-09T06:16:41;14.20;99.90
14031;DHT22;7090;49.436;8.490;2023-10-09T06:19:12;14.30;99.90
14031;DHT22;7090;49.436;8.490;2023-10-09T06:22:00;14.30;99.90
14031;DHT22;7090;49.436;8.490;2023-10-09T06:24:30;14.30;99.90
14031;DHT22;7090;49.436;8.490;2023-10-09T06:26:59;14.30;99.90
14031;DHT22;7090;49.436;8.490;2023-10-09T06:32:10;14.40;99.90
14031;DHT22;7090;49.436;8.490;2023-10-09T06:34:59;14.40;99.90
14031;DHT22;7090;49.436;8.490;2023-10-09T06:37:45;14.40;99.90
14031;DHT22;7090;49.436;8.490;2023-10-09T06:40:33;14.40;99.90
14031;DHT22;7090;49.436;8.490;2023-10-09T06:43:05;14.50;99.90
14031;DHT22;7090;49.436;8.490;2023-10-09T06:45:56;14.40;99.90
14031;DHT22;7090;49.436;8.490;2023-10-09T06:48:41;14.50;99.90
14031;DHT22;7090;49.436;8.490;2023-10-09T06:51:12;14.50;99.90
14031;DHT22;7090;49.436;8.490;2023-10-09T06:53:42;14.60;99.90
14031;DHT22;7090;49.436;8.490;2023-10-09T07:01:24;14.60;99.90
14031;DHT22;7090;49.436;8.490;2023-10-09T07:03:53;14.60;99.90
14031;DHT22;7090;49.436;8.490;2023-10-09T07:06:20;14.60;99.90
14031;DHT22;7090;49.436;8.490;2023-10-09T07:08:55;14.70;99.90
14031;DHT22;7090;49.436;8.490;2023-10-09T07:11:47;14.70;99.90
14031;DHT22;7090;49.436;8.490;2023-10-09T07:14:23;14.80;99.90
14031;DHT22;7090;49.436;8.490;2023-10-09T07:16:59;14.80;99.90
14031;DHT22;7090;49.436;8.490;2023-10-09T07:19:44;14.90;99.90
14031;DHT22;7090;49.436;8.490;2023-10-09T07:22:13;15.10;99.90
14031;DHT22;7090;49.436;8.490;2023-10-09T07:27:26;15.20;99.90
14031;DHT22;7090;49.436;8.490;2023-10-09T07:30:18;15.20;99.90
14031;DHT22;7090;49.436;8.490;2023-10-09T07:33:04;15.40;99.90
14031;DHT22;7090;49.436;8.490;2023-10-09T07:35:43;15.40;99.90
14031;DHT22;7090;49.436;8.490;2023-10-09T07:38:19;15.50;99.90
14031;DHT22;7090;49.436;8.490;2023-10-09T07:40:46;15.70;99.90
14031;DHT22;7090;49.436;8.490;2023-10-09T07:43:22;15.80;99.90
14031;DHT22;7090;49.436;8.490;2023-10-09T07:45:53;15.90;99.90
14031;DHT22;7090;49.436;8.490;2023-10-09T07:48:27;15.90;99.90
14031;DHT22;7090;49.436;8.490;2023-10-09T07:51:04;16.10;99.90
14031;DHT22;7090;49.436;8.490;2023-10-09T07:53:30;16.30;99.90
14031;DHT22;7090;49.436;8.490;2023-10-09T07:56:08;16.40;99.90
14031;DHT22;7090;49.436;8.490;2023-10-09T07:58:34;16.50;99.90
14031;DHT22;7090;49.436;8.490;2023-10-09T08:01:16;16.60;99.90
14031;DHT22;7090;49.436;8.490;2023-10-09T08:03:49;16.60;99.90
14031;DHT22;7090;49.436;8.490;2023-10-09T08:06:27;16.50;99.90
14031;DHT22;7090;49.436;8.490;2023-10-09T08:09:09;16.60;99.90
14031;DHT22;7090;49.436;8.490;2023-10-09T08:11:38;16.50;99.90
14031;DHT22;7090;49.436;8.490;2023-10-09T08:14:07;16.60;99.90
14031;DHT22;7090;49.436;8.490;2023-10-09T08:16:47;16.60;99.90
14031;DHT22;7090;49.436;8.490;2023-10-09T08:19:12;16.80;99.90
14031;DHT22;7090;49.436;8.490;2023-10-09T08:21:56;16.90;99.90
14031;DHT22;7090;49.436;8.490;2023-10-09T08:24:41;16.90;99.90
14031;DHT22;7090;49.436;8.490;2023-10-09T08:27:07;17.10;99.90
14031;DHT22;7090;49.436;8.490;2023-10-09T08:29:51;17.30;99.90
14031;DHT22;7090;49.436;8.490;2023-10-09T08:32:37;17.50;99.90
14031;DHT22;7090;49.436;8.490;2023-10-09T08:35:08;17.80;99.90
14031;DHT22;7090;49.436;8.490;2023-10-09T08:37:57;17.90;99.90
14031;DHT22;7090;49.436;8.490;2023-10-09T08:40:34;17.90;99.90
14031;DHT22;7090;49.436;8.490;2023-10-09T08:43:13;18.10;99.90
14031;DHT22;7090;49.436;8.490;2023-10-09T08:45:41;18.00;99.90
14031;DHT22;7090;49.436;8.490;2023-10-09T08:48:11;18.30;99.90
14031;DHT22;7090;49.436;8.490;2023-10-09T08:50:45;18.60;99.90
14031;DHT22;7090;49.436;8.490;2023-10-09T08:53:11;18.70;99.90
14031;DHT22;7090;49.436;8.490;2023-10-09T08:55:38;19.00;99.90
14031;DHT22;7090;49.436;8.490;2023-10-09T08:58:07;19.30;99.90
14031;DHT22;7090;49.436;8.490;2023-10-09T09:00:44;19.40;99.90
14031;DHT22;7090;49.436;8.490;2023-10-09T09:03:21;19.50;99.90
14031;DHT22;7090;49.436;8.490;2023-10-09T09:05:58;19.50;99.90
14031;DHT22;7090;49.436;8.490;2023-10-09T09:08:28;19.50;99.90
14031;DHT22;7090;49.436;8.490;2023-10-09T09:13:45;19.80;99.90
14031;DHT22;7090;49.436;8.490;2023-10-09T09:16:18;19.80;97.30
14031;DHT22;7090;49.436;8.490;2023-10-09T09:19:12;19.80;99.90
14031;DHT22;7090;49.436;8.490;2023-10-09T09:24:14;20.20;33.90
14031;DHT22;7090;49.436;8.490;2023-10-09T09:26:50;20.00;58.70
14031;DHT22;7090;49.436;8.490;2023-10-09T09:29:45;20.00;94.20
14031;DHT22;7090;49.436;8.490;2023-10-09T09:32:29;20.10;95.30
14031;DHT22;7090;49.436;8.490;2023-10-09T09:35:01;19.90;94.00
14031;DHT22;7090;49.436;8.490;2023-10-09T09:37:30;19.80;94.50
14031;DHT22;7090;49.436;8.490;2023-10-09T09:40:08;19.80;89.80
14031;DHT22;7090;49.436;8.490;2023-10-09T09:42:58;19.70;99.90
14031;DHT22;7090;49.436;8.490;2023-10-09T09:45:35;19.80;99.90
14031;DHT22;7090;49.436;8.490;2023-10-09T09:48:05;19.90;99.90
14031;DHT22;7090;49.436;8.490;2023-10-09T09:50:32;19.90;87.90
14031;DHT22;7090;49.436;8.490;2023-10-09T09:52:59;20.10;66.40
14031;DHT22;7090;49.436;8.490;2023-10-09T09:55:27;20.30;99.90
14031;DHT22;7090;49.436;8.490;2023-10-09T09:57:58;20.70;84.30
14031;DHT22;7090;49.436;8.490;2023-10-09T10:00:28;20.60;63.00
14031;DHT22;7090;49.436;8.490;2023-10-09T10:03:06;20.70;57.60
14031;DHT22;7090;49.436;8.490;2023-10-09T10:05:33;20.80;67.80
14031;DHT22;7090;49.436;8.490;2023-10-09T10:07:59;20.90;46.70
14031;DHT22;7090;49.436;8.490;2023-10-09T10:10:39;20.80;99.90
14031;DHT22;7090;49.436;8.490;2023-10-09T10:21:35;20.40;41.40
14031;DHT22;7090;49.436;8.490;2023-10-09T10:29:44;20.50;39.10
14031;DHT22;7090;49.436;8.490;2023-10-09T10:32:15;20.40;32.70
14031;DHT22;7090;49.436;8.490;2023-10-09T10:37:21;20.50;37.50
14031;DHT22;7090;49.436;8.490;2023-10-09T10:39:51;20.70;60.00
14031;DHT22;7090;49.436;8.490;2023-10-09T10:42:16;20.90;45.80
14031;DHT22;7090;49.436;8.490;2023-10-09T10:45:03;20.70;10.00
14031;DHT22;7090;49.436;8.490;2023-10-09T10:47:48;20.80;50.70
14031;DHT22;7090;49.436;8.490;2023-10-09T10:50:17;21.10;28.10
14031;DHT22;7090;49.436;8.490;2023-10-09T10:53:13;21.20;1.00
14031;DHT22;7090;49.436;8.490;2023-10-09T10:56:00;21.20;1.00
14031;DHT22;7090;49.436;8.490;2023-10-09T10:58:54;21.00;1.00
14031;DHT22;7090;49.436;8.490;2023-10-09T11:01:32;20.90;1.00
14031;DHT22;7090;49.436;8.490;2023-10-09T11:04:16;20.90;1.00
14031;DHT22;7090;49.436;8.490;2023-10-09T11:07:01;21.00;1.00
14031;DHT22;7090;49.436;8.490;2023-10-09T11:09:57;21.40;1.00
14031;DHT22;7090;49.436;8.490;2023-10-09T11:12:45;21.90;1.00
14031;DHT22;7090;49.436;8.490;2023-10-09T11:15:40;22.20;1.00
14031;DHT22;7090;49.436;8.490;2023-10-09T11:18:26;22.40;1.00
14031;DHT22;7090;49.436;8.490;2023-10-09T11:20:54;22.50;1.00
14031;DHT22;7090;49.436;8.490;2023-10-09T11:23:30;22.20;1.00
14031;DHT22;7090;49.436;8.490;2023-10-09T11:25:59;22.00;1.00
14031;DHT22;7090;49.436;8.490;2023-10-09T11:28:44;21.90;1.00
14031;DHT22;7090;49.436;8.490;2023-10-09T11:31:23;21.90;1.00
14031;DHT22;7090;49.436;8.490;2023-10-09T11:33:52;21.90;1.00
14031;DHT22;7090;49.436;8.490;2023-10-09T11:36:20;22.00;1.00
14031;DHT22;7090;49.436;8.490;2023-10-09T11:38:58;22.10;1.00
14031;DHT22;7090;49.436;8.490;2023-10-09T11:41:43;22.20;1.00
14031;DHT22;7090;49.436;8.490;2023-10-09T11:44:10;22.00;1.00
14031;DHT22;7090;49.436;8.490;2023-10-09T11:47:03;22.20;1.00
14031;DHT22;7090;49.436;8.490;2023-10-09T11:49:57;22.10;1.00
14031;DHT22;7090;49.436;8.490;2023-10-09T11:52:32;22.20;1.00
14031;DHT22;7090;49.436;8.490;2023-10-09T11:55:04;22.30;1.00
14031;DHT22;7090;49.436;8.490;2023-10-09T11:57:33;22.40;1.00
14031;DHT22;7090;49.436;8.490;2023-10-09T12:00:04;22.70;1.00
14031;DHT22;7090;49.436;8.490;2023-10-09T12:02:52;23.10;1.00
14031;DHT22;7090;49.436;8.490;2023-10-09T12:05:18;23.00;1.00
14031;DHT22;7090;49.436;8.490;2023-10-09T12:07:47;23.00;1.00
14031;DHT22;7090;49.436;8.490;2023-10-09T12:10:23;23.10;1.00
14031;DHT22;7090;49.436;8.490;2023-10-09T12:12:52;23.30;1.00
14031;DHT22;7090;49.436;8.490;2023-10-09T12:15:18;23.40;1.00
14031;DHT22;7090;49.436;8.490;2023-10-09T12:17:45;23.60;1.00
14031;DHT22;7090;49.436;8.490;2023-10-09T12:20:16;23.80;1.00
14031;DHT22;7090;49.436;8.490;2023-10-09T12:23:03;23.90;1.00
14031;DHT22;7090;49.436;8.490;2023-10-09T12:25:31;24.10;1.00
14031;DHT22;7090;49.436;8.490;2023-10-09T12:27:58;24.20;1.00
14031;DHT22;7090;49.436;8.490;2023-10-09T12:30:27;24.20;1.00
14031;DHT22;7090;49.436;8.490;2023-10-09T12:32:54;24.40;1.00
14031;DHT22;7090;49.436;8.490;2023-10-09T12:35:20;24.90;1.00
14031;DHT22;7090;49.436;8.490;2023-10-09T12:37:46;25.00;1.00
14031;DHT22;7090;49.436;8.490;2023-10-09T12:40:12;25.20;1.00
14031;DHT22;7090;49.436;8.490;2023-10-09T12:42:38;25.70;1.00
14031;DHT22;7090;49.436;8.490;2023-10-09T12:45:06;25.60;1.00
14031;DHT22;7090;49.436;8.490;2023-10-09T12:47:35;25.00;1.00
14031;DHT22;7090;49.436;8.490;2023-10-09T12:50:04;25.00;1.00
14031;DHT22;7090;49.436;8.490;2023-10-09T12:52:35;24.70;1.00
14031;DHT22;7090;49.436;8.490;2023-10-09T12:55:03;24.60;1.00
14031;DHT22;7090;49.436;8.490;2023-10-09T12:57:43;24.50;1.00
14031;DHT22;7090;49.436;8.490;2023-10-09T13:00:09;24.80;1.00
14031;DHT22;7090;49.436;8.490;2023-10-09T13:02:37;24.80;1.00
14031;DHT22;7090;49.436;8.490;2023-10-09T13:05:08;24.70;1.00
14031;DHT22;7090;49.436;8.490;2023-10-09T13:07:36;24.70;1.00
14031;DHT22;7090;49.436;8.490;2023-10-09T13:10:01;24.80;1.00
14031;DHT22;7090;49.436;8.490;2023-10-09T13:12:34;25.20;1.00
14031;DHT22;7090;49.436;8.490;2023-10-09T13:15:10;24.90;1.00
14031;DHT22;7090;49.436;8.490;2023-10-09T13:17:36;25.10;1.00
14031;DHT22;7090;49.436;8.490;2023-10-09T13:20:03;25.20;1.00
14031;DHT22;7090;49.436;8.490;2023-10-09T13:22:38;25.40;1.00
14031;DHT22;7090;49.436;8.490;2023-10-09T13:25:05;25.80;1.00
14031;DHT22;7090;49.436;8.490;2023-10-09T13:27:31;25.50;1.00
14031;DHT22;7090;49.436;8.490;2023-10-09T13:30:00;25.50;1.00
14031;DHT22;7090;49.436;8.490;2023-10-09T13:32:34;25.40;1.00
14031;DHT22;7090;49.436;8.490;2023-10-09T13:35:05;25.40;1.00
14031;DHT22;7090;49.436;8.490;2023-10-09T13:37:31;25.60;1.00
14031;DHT22;7090;49.436;8.490;2023-10-09T13:40:03;25.50;1.00
14031;DHT22;7090;49.436;8.490;2023-10-09T13:42:35;25.30;1.00
14031;DHT22;7090;49.436;8.490;2023-10-09T13:45:02;25.00;1.00
14031;DHT22;7090;49.436;8.490;2023-10-09T13:47:32;25.00;1.00
14031;DHT22;7090;49.436;8.490;2023-10-09T13:49:59;25.00;1.00
14031;DHT22;7090;49.436;8.490;2023-10-09T13:52:25;24.80;1.00
14031;DHT22;7090;49.436;8.490;2023-10-09T13:54:52;24.70;1.00
14031;DHT22;7090;49.436;8.490;2023-10-09T13:57:18;24.80;1.00
14031;DHT22;7090;49.436;8.490;2023-10-09T13:59:47;25.00;1.00
14031;DHT22;7090;49.436;8.490;2023-10-09T14:02:16;25.00;1.00
14031;DHT22;7090;49.436;8.490;2023-10-09T14:04:46;25.00;1.00
14031;DHT22;7090;49.436;8.490;2023-10-09T14:07:16;25.10;1.00
14031;DHT22;7090;49.436;8.490;2023-10-09T14:09:42;25.00;1.00
14031;DHT22;7090;49.436;8.490;2023-10-09T14:12:21;25.00;1.00
14031;DHT22;7090;49.436;8.490;2023-10-09T14:14:47;25.20;1.00
14031;DHT22;7090;49.436;8.490;2023-10-09T14:19:43;25.40;1.00
14031;DHT22;7090;49.436;8.490;2023-10-09T14:22:20;25.20;1.00
14031;DHT22;7090;49.436;8.490;2023-10-09T14:24:47;25.30;1.00
14031;DHT22;7090;49.436;8.490;2023-10-09T14:27:16;25.40;1.00
14031;DHT22;7090;49.436;8.490;2023-10-09T14:29:45;25.30;1.00
14031;DHT22;7090;49.436;8.490;2023-10-09T14:32:11;25.30;1.00
14031;DHT22;7090;49.436;8.490;2023-10-09T14:34:41;25.30;1.00
14031;DHT22;7090;49.436;8.490;2023-10-09T14:37:12;25.20;1.00
14031;DHT22;7090;49.436;8.490;2023-10-09T14:39:43;25.20;1.00
14031;DHT22;7090;49.436;8.490;2023-10-09T14:42:14;25.10;1.00
14031;DHT22;7090;49.436;8.490;2023-10-09T14:44:41;25.10;1.00
14031;DHT22;7090;49.436;8.490;2023-10-09T14:47:07;25.30;1.00
14031;DHT22;7090;49.436;8.490;2023-10-09T14:49:33;25.30;1.00
14031;DHT22;7090;49.436;8.490;2023-10-09T14:52:03;25.40;1.00
14031;DHT22;7090;49.436;8.490;2023-10-09T14:54:29;25.40;1.00
14031;DHT22;7090;49.436;8.490;2023-10-09T14:56:55;25.40;1.00
14031;DHT22;7090;49.436;8.490;2023-10-09T14:59:22;25.30;1.00
14031;DHT22;7090;49.436;8.490;2023-10-09T15:01:50;25.40;1.00
14031;DHT22;7090;49.436;8.490;2023-10-09T15:04:15;25.40;1.00
14031;DHT22;7090;49.436;8.490;2023-10-09T15:06:41;25.50;1.00
14031;DHT22;7090;49.436;8.490;2023-10-09T15:09:07;25.60;1.00
14031;DHT22;7090;49.436;8.490;2023-10-09T15:11:47;25.60;1.00
14031;DHT22;7090;49.436;8.490;2023-10-09T15:14:14;25.40;1.00
14031;DHT22;7090;49.436;8.490;2023-10-09T15:16:39;25.00;1.00
14031;DHT22;7090;49.436;8.490;2023-10-09T15:19:08;25.00;1.00
14031;DHT22;7090;49.436;8.490;2023-10-09T15:21:38;25.20;1.00
14031;DHT22;7090;49.436;8.490;2023-10-09T15:24:10;25.10;1.00
14031;DHT22;7090;49.436;8.490;2023-10-09T15:26:44;25.10;1.00
14031;DHT22;7090;49.436;8.490;2023-10-09T15:29:20;25.10;1.00
14031;DHT22;7090;49.436;8.490;2023-10-09T15:31:54;25.00;1.00
14031;DHT22;7090;49.436;8.490;2023-10-09T15:34:20;24.80;1.00
14031;DHT22;7090;49.436;8.490;2023-10-09T15:36:47;24.80;1.00
14031;DHT22;7090;49.436;8.490;2023-10-09T15:39:16;24.60;1.00
14031;DHT22;7090;49.436;8.490;2023-10-09T15:41:45;24.60;1.00
14031;DHT22;7090;49.436;8.490;2023-10-09T15:44:11;24.50;1.00
14031;DHT22;7090;49.436;8.490;2023-10-09T15:46:39;24.50;1.00
14031;DHT22;7090;49.436;8.490;2023-10-09T15:49:05;24.40;1.00
14031;DHT22;7090;49.436;8.490;2023-10-09T15:51:32;24.40;1.00
14031;DHT22;7090;49.436;8.490;2023-10-09T15:53:58;24.30;1.00
14031;DHT22;7090;49.436;8.490;2023-10-09T15:56:26;24.30;1.00
14031;DHT22;7090;49.436;8.490;2023-10-09T15:58:52;24.20;1.00
14031;DHT22;7090;49.436;8.490;2023-10-09T16:01:19;24.00;1.00
14031;DHT22;7090;49.436;8.490;2023-10-09T16:03:46;23.90;1.00
14031;DHT22;7090;49.436;8.490;2023-10-09T16:06:16;23.80;1.00
14031;DHT22;7090;49.436;8.490;2023-10-09T16:08:46;23.80;1.00
14031;DHT22;7090;49.436;8.490;2023-10-09T16:11:17;23.80;1.00
14031;DHT22;7090;49.436;8.490;2023-10-09T16:13:42;23.70;1.00
14031;DHT22;7090;49.436;8.490;2023-10-09T16:16:08;23.60;1.00
14031;DHT22;7090;49.436;8.490;2023-10-09T16:18:37;23.50;1.00
14031;DHT22;7090;49.436;8.490;2023-10-09T16:21:04;23.40;1.00
14031;DHT22;7090;49.436;8.490;2023-10-09T16:23:34;23.40;1.00
14031;DHT22;7090;49.436;8.490;2023-10-09T16:26:01;23.30;1.00
14031;DHT22;7090;49.436;8.490;2023-10-09T16:28:29;23.10;1.00
14031;DHT22;7090;49.436;8.490;2023-10-09T16:30:56;23.00;1.00
14031;DHT22;7090;49.436;8.490;2023-10-09T16:33:23;23.00;1.00
14031;DHT22;7090;49.436;8.490;2023-10-09T16:35:51;22.90;1.00
14031;DHT22;7090;49.436;8.490;2023-10-09T16:38:20;22.70;1.00
14031;DHT22;7090;49.436;8.490;2023-10-09T16:40:52;22.70;1.00
14031;DHT22;7090;49.436;8.490;2023-10-09T16:43:19;22.50;1.00
14031;DHT22;7090;49.436;8.490;2023-10-09T16:45:45;22.40;1.00
14031;DHT22;7090;49.436;8.490;2023-10-09T16:48:11;22.30;1.00
14031;DHT22;7090;49.436;8.490;2023-10-09T16:50:40;22.00;1.00
14031;DHT22;7090;49.436;8.490;2023-10-09T16:53:06;21.80;99.90
14031;DHT22;7090;49.436;8.490;2023-10-09T16:55:39;21.60;99.90
14031;DHT22;7090;49.436;8.490;2023-10-09T16:58:07;21.40;50.00
14031;DHT22;7090;49.436;8.490;2023-10-09T17:00:33;21.10;99.90
14031;DHT22;7090;49.436;8.490;2023-10-09T17:03:02;20.90;1.00
14031;DHT22;7090;49.436;8.490;2023-10-09T17:05:35;20.70;1.00
14031;DHT22;7090;49.436;8.490;2023-10-09T17:08:08;20.50;1.00
14031;DHT22;7090;49.436;8.490;2023-10-09T17:10:36;20.50;1.00